Time;durP1;ratioP1;P1;durP2;ratioP2;P2;SDS_P1;SDS_P2;PMS_P1;PMS_P2;Temp;Humidity;BMP_temperature;BMP_pressure;BME280_temperature;BME280_humidity;BME280_pressure;Samples;Min_cycle;Max_cycle;Signal;HPM_P1;HPM_P2
2022/01/17 05:04:14;;;;;;;16.03;8.70;;;;;;;3.11;73.39;100958.16;6547285;26;20107;31
2022/01/17 05:07:17;;;;;;;16.52;8.95;;;;;;;3.17;73.16;100931.09;6614319;26;34070;-79
2022/01/17 05:10:21;;;;;;;15.10;9.32;;;;;;;3.11;73.48;100929.75;6634247;26;34419;-79
2022/01/17 05:13:32;;;;;;;14.77;8.88;;;;;;;3.15;73.02;100930.34;6634082;26;35071;-79
2022/01/17 05:16:40;;;;;;;18.02;8.82;;;;;;;3.25;72.51;100942.00;6633207;26;34126;-79
2022/01/17 05:19:49;;;;;;;15.60;8.88;;;;;;;3.29;72.38;100943.44;6632918;26;33949;-79
2022/01/17 05:22:51;;;;;;;18.02;8.88;;;;;;;3.26;72.54;100930.38;6638885;26;34183;-79
2022/01/17 05:25:54;;;;;;;15.98;9.27;;;;;;;3.22;72.72;100936.91;6639969;26;33942;-79
2022/01/17 05:28:57;;;;;;;15.50;9.43;;;;;;;3.27;72.58;100936.53;6636239;26;33798;-79
2022/01/17 05:32:00;;;;;;;18.62;9.30;;;;;;;3.22;73.36;100931.59;6633170;26;34610;-79
2022/01/17 05:35:04;;;;;;;17.02;8.57;;;;;;;3.25;73.02;100930.50;6633389;26;34921;-79
2022/01/17 05:38:09;;;;;;;17.45;9.38;;;;;;;3.26;72.93;100932.19;6633417;26;35409;-79
2022/01/17 05:41:11;;;;;;;18.05;9.15;;;;;;;3.22;72.94;100928.06;6633941;26;33916;-80
2022/01/17 05:44:15;;;;;;;16.92;9.13;;;;;;;3.26;72.54;100929.53;6634064;26;34591;-79
2022/01/17 05:47:18;;;;;;;17.00;8.57;;;;;;;3.30;72.35;100921.19;6633784;26;34145;-83
2022/01/17 05:50:21;;;;;;;16.20;8.88;;;;;;;3.33;72.09;100934.25;6633468;26;33958;-83
2022/01/17 05:53:23;;;;;;;14.90;8.20;;;;;;;3.36;71.81;100928.72;6636018;26;34230;-84
2022/01/17 05:56:26;;;;;;;13.48;7.90;;;;;;;3.40;71.44;100922.19;6638619;26;34268;-84
2022/01/17 05:59:29;;;;;;;15.07;8.23;;;;;;;3.44;71.45;100921.94;6633838;26;34106;-80
2022/01/17 06:02:32;;;;;;;14.45;8.07;;;;;;;3.49;71.04;100928.63;6639379;26;34236;-80
2022/01/17 06:05:35;;;;;;;15.40;8.35;;;;;;;3.54;70.69;100926.47;6644507;26;34518;-81
2022/01/17 06:08:38;;;;;;;17.50;8.30;;;;;;;3.60;70.04;100922.47;6635854;26;34409;-81
2022/01/17 06:11:41;;;;;;;14.43;7.45;;;;;;;3.58;70.29;100927.91;6633856;26;34165;-80
2022/01/17 06:14:44;;;;;;;15.35;7.80;;;;;;;3.52;70.48;100919.56;6636255;26;34380;-80
2022/01/17 06:17:47;;;;;;;13.40;7.65;;;;;;;3.67;69.48;100926.34;6635124;26;33886;-81
2022/01/17 06:20:50;;;;;;;11.63;7.40;;;;;;;3.57;70.15;100926.22;6639330;26;33850;-81
2022/01/17 06:23:53;;;;;;;13.57;7.68;;;;;;;3.71;68.86;100925.13;6636668;26;33764;-80
2022/01/17 06:26:55;;;;;;;13.70;7.55;;;;;;;3.69;68.79;100928.91;6636383;26;33927;-81
2022/01/17 06:29:59;;;;;;;14.05;7.57;;;;;;;3.68;69.09;100930.69;6636690;26;34582;-81
2022/01/17 06:33:03;;;;;;;12.07;7.37;;;;;;;3.73;69.16;100920.53;6637446;26;35207;-80
2022/01/17 06:36:06;;;;;;;13.75;8.02;;;;;;;3.70;69.31;100942.06;6637399;26;34092;-80
2022/01/17 06:39:10;;;;;;;14.45;8.00;;;;;;;3.79;68.63;100929.84;6633453;26;33925;-80
2022/01/17 06:42:13;;;;;;;12.85;6.85;;;;;;;3.79;68.90;100903.22;6634814;26;33812;-80
2022/01/17 06:45:18;;;;;;;13.75;8.25;;;;;;;3.93;68.47;100891.47;6635643;26;33999;-80
2022/01/17 06:48:21;;;;;;;13.10;7.50;;;;;;;3.89;68.77;100884.69;6635053;26;34697;-80
2022/01/17 06:51:24;;;;;;;12.85;7.68;;;;;;;3.92;68.57;100895.09;6641386;26;33660;-81
2022/01/17 06:54:27;;;;;;;14.57;7.18;;;;;;;3.93;68.14;100904.81;6645238;26;34032;-79
2022/01/17 06:57:30;;;;;;;11.52;7.40;;;;;;;3.89;68.50;100909.53;6636463;26;34419;-80
2022/01/17 07:00:33;;;;;;;9.93;6.80;;;;;;;3.96;68.11;100915.22;6633652;26;33695;-80
2022/01/17 07:03:36;;;;;;;10.52;6.15;;;;;;;4.00;67.60;100909.50;6634602;26;35806;-80
2022/01/17 07:06:40;;;;;;;9.70;6.05;;;;;;;4.24;66.15;100897.84;6633786;26;33609;-79
2022/01/17 07:09:43;;;;;;;11.50;6.62;;;;;;;4.39;65.75;100907.28;6634383;26;34193;-80
2022/01/17 07:12:46;;;;;;;11.32;5.82;;;;;;;4.49;65.30;100880.72;6634629;26;34514;-79
2022/01/17 07:15:49;;;;;;;10.10;6.12;;;;;;;4.60;64.55;100872.66;6634213;26;33901;-80
2022/01/17 07:18:52;;;;;;;8.10;5.93;;;;;;;4.61;64.50;100850.34;6634175;26;34089;-80
2022/01/17 07:21:55;;;;;;;10.75;6.47;;;;;;;4.69;64.36;100855.91;6635417;26;34075;-80
2022/01/17 07:25:12;;;;;;;11.12;6.45;;;;;;;4.62;64.87;100876.06;6636780;26;33915;-80
2022/01/17 07:28:15;;;;;;;12.35;6.53;;;;;;;4.69;64.36;100866.56;6642774;26;33941;-80
2022/01/17 07:31:19;;;;;;;8.32;6.32;;;;;;;4.70;64.17;100892.25;6642728;26;34587;-80
2022/01/17 07:34:22;;;;;;;9.95;6.18;;;;;;;4.75;64.20;100902.56;6650930;26;33926;-80
2022/01/17 07:37:25;;;;;;;9.48;6.12;;;;;;;4.70;64.80;100928.75;6641686;26;34589;-80
2022/01/17 07:40:29;;;;;;;8.38;5.53;;;;;;;4.75;64.66;100954.06;6634691;26;34181;-80
2022/01/17 07:43:31;;;;;;;8.10;5.72;;;;;;;4.83;64.38;100979.28;6634108;26;34260;-81
2022/01/17 07:46:48;;;;;;;7.78;5.45;;;;;;;4.83;64.12;100992.63;6638657;26;35238;-81
2022/01/17 07:49:51;;;;;;;8.60;6.00;;;;;;;4.97;63.94;101009.19;6635558;26;34069;-85
2022/01/17 07:53:10;;;;;;;10.65;5.95;;;;;;;4.95;64.16;100978.28;6634666;26;33905;-82
2022/01/17 07:56:13;;;;;;;9.48;6.18;;;;;;;4.93;64.00;100943.69;6633474;26;34794;-81
2022/01/17 07:59:16;;;;;;;10.50;5.85;;;;;;;4.92;63.86;100919.84;6633818;26;34925;-81
2022/01/17 08:02:19;;;;;;;9.50;6.07;;;;;;;4.95;64.00;100904.41;6634914;26;34447;-81
2022/01/17 08:05:24;;;;;;;8.15;5.43;;;;;;;4.93;64.38;100909.00;6634709;26;34276;-81
2022/01/17 08:08:26;;;;;;;11.60;5.82;;;;;;;4.95;64.10;100906.22;6643752;26;33673;-81
2022/01/17 08:11:29;;;;;;;8.55;5.75;;;;;;;4.98;64.24;100904.16;6638981;26;35089;-81
2022/01/17 08:14:32;;;;;;;9.80;5.78;;;;;;;4.96;64.31;100879.41;6634271;26;34612;-81
2022/01/17 08:17:35;;;;;;;11.73;6.68;;;;;;;4.92;64.79;100858.47;6634332;26;34263;-81
2022/01/17 08:20:38;;;;;;;9.75;5.72;;;;;;;4.96;64.46;100846.53;6633926;26;34655;-81
2022/01/17 08:23:42;;;;;;;8.95;6.07;;;;;;;5.06;64.27;100823.47;6635188;26;34333;-81
2022/01/17 08:26:45;;;;;;;12.15;6.28;;;;;;;5.15;64.00;100809.31;6634395;26;33882;-79
2022/01/17 08:29:48;;;;;;;8.77;5.60;;;;;;;5.19;63.74;100821.41;6634875;26;33870;-79
2022/01/17 08:33:10;;;;;;;10.65;5.90;;;;;;;5.14;63.95;100826.28;6639179;26;33478;-79
2022/01/17 08:36:14;;;;;;;8.38;5.30;;;;;;;5.20;63.65;100843.59;6634206;26;33802;-79
2022/01/17 08:39:20;;;;;;;9.30;5.97;;;;;;;5.16;63.93;100858.19;6634227;26;33417;-79
2022/01/17 08:42:23;;;;;;;8.35;5.30;;;;;;;5.25;63.81;100872.59;6638529;26;34140;-79
2022/01/17 08:45:26;;;;;;;10.27;5.80;;;;;;;5.18;64.08;100904.31;6634012;26;33852;-79
2022/01/17 08:48:44;;;;;;;9.52;5.93;;;;;;;5.23;64.01;100924.28;6634261;26;34069;-79
2022/01/17 08:51:47;;;;;;;11.45;5.72;;;;;;;5.28;64.00;100928.37;6633589;26;34004;-80
2022/01/17 08:54:49;;;;;;;11.82;5.78;;;;;;;5.31;64.40;100952.16;6633713;26;34000;-80
2022/01/17 08:57:52;;;;;;;9.90;5.90;;;;;;;5.33;64.09;100916.34;6633993;26;34789;-80
2022/01/17 09:00:57;;;;;;;9.63;5.93;;;;;;;5.39;64.02;100922.97;6633433;26;33940;-79
2022/01/17 09:03:59;;;;;;;14.10;5.97;;;;;;;5.33;64.59;100862.94;6633838;26;33744;-81
2022/01/17 09:07:03;;;;;;;9.25;5.32;;;;;;;5.39;64.46;100857.06;6634437;26;35488;-83
2022/01/17 09:10:06;;;;;;;13.00;6.18;;;;;;;5.42;64.48;100840.78;6634586;26;34692;-83
2022/01/17 09:13:09;;;;;;;9.30;5.93;;;;;;;5.42;64.40;100838.13;6634826;26;34590;-81
2022/01/17 09:16:11;;;;;;;14.50;5.80;;;;;;;5.49;64.12;100840.25;6635900;26;33663;-82
2022/01/17 09:19:14;;;;;;;14.68;5.90;;;;;;;5.47;64.35;100797.66;6644628;26;34206;-85
2022/01/17 09:22:17;;;;;;;15.52;6.15;;;;;;;5.60;63.75;100808.09;6635578;26;34390;-84
2022/01/17 09:25:20;;;;;;;10.82;6.12;;;;;;;5.63;63.77;100797.16;6633614;26;34084;-83
2022/01/17 09:28:23;;;;;;;12.13;6.65;;;;;;;5.64;63.96;100802.34;6633663;26;34913;-84
2022/01/17 09:31:26;;;;;;;11.00;5.60;;;;;;;5.66;63.54;100767.50;6634195;26;34172;-86
2022/01/17 09:34:29;;;;;;;13.55;6.35;;;;;;;5.68;63.75;100769.06;6637757;26;34388;-87
2022/01/17 09:37:34;;;;;;;9.48;6.37;;;;;;;5.71;63.59;100777.78;6635547;26;34257;-88
2022/01/17 09:40:37;;;;;;;9.90;6.28;;;;;;;5.77;63.55;100751.38;6634387;26;34182;-87
2022/01/17 09:44:01;;;;;;;10.88;6.53;;;;;;;5.77;63.37;100738.00;6634209;26;34413;-82
2022/01/17 09:47:06;;;;;;;12.00;6.30;;;;;;;5.82;63.50;100714.41;6636943;26;34269;-83
2022/01/17 09:50:13;;;;;;;9.77;6.03;;;;;;;5.88;62.76;100691.63;6638380;26;34546;-83
2022/01/17 09:53:18;;;;;;;10.98;6.28;;;;;;;5.90;62.81;100685.13;6634326;26;33935;-83
2022/01/17 09:56:23;;;;;;;9.52;5.70;;;;;;;5.96;62.54;100672.22;6633295;26;35020;-83
2022/01/17 09:59:30;;;;;;;9.60;5.93;;;;;;;5.92;62.57;100695.69;6633593;26;33747;-83
2022/01/17 10:02:32;;;;;;;9.23;6.05;;;;;;;5.86;63.05;100707.78;6640342;26;34346;-83
2022/01/17 10:05:37;;;;;;;9.73;6.00;;;;;;;5.84;63.52;100687.53;6634247;26;34630;-82
2022/01/17 10:08:39;;;;;;;10.05;6.22;;;;;;;5.87;63.23;100681.91;6637306;26;33825;-83
2022/01/17 10:12:14;;;;;;;10.73;6.47;;;;;;;5.79;63.61;100698.66;6634141;26;34062;-83
2022/01/17 10:15:25;;;;;;;11.63;6.28;;;;;;;5.86;63.85;100688.22;6637382;26;36020;-83
2022/01/17 10:18:39;;;;;;;;;;;;;;;5.84;63.94;100687.53;6641803;26;34036;-83
2022/01/17 10:24:59;;;;;;;11.50;6.75;;;;;;;5.68;64.61;100678.22;6635131;26;34532;-82
2022/01/17 10:34:53;;;;;;;;;;;;;;;5.66;65.25;100641.97;6639137;26;34278;-83
2022/01/17 10:35:12;;;;;;;13.38;7.35;;;;;;;5.87;64.05;100652.50;6634737;26;34642;-83
2022/01/17 10:38:20;;;;;;;17.05;6.70;;;;;;;5.74;64.43;100636.75;6636559;26;34441;-82
2022/01/17 10:41:26;;;;;;;13.02;7.50;;;;;;;5.74;64.61;100628.75;6634641;26;34634;-82
2022/01/17 10:44:37;;;;;;;10.70;6.32;;;;;;;5.82;64.54;100626.22;6635307;26;34391;-82
2022/01/17 10:47:43;;;;;;;10.57;6.55;;;;;;;5.82;64.54;100620.88;6634368;26;33617;-82
2022/01/17 10:50:50;;;;;;;10.93;6.50;;;;;;;6.07;63.76;100626.66;6635151;26;33983;-82
2022/01/17 10:53:55;;;;;;;10.50;6.25;;;;;;;6.11;63.93;100615.53;6635771;26;33602;-82
2022/01/17 10:56:58;;;;;;;10.63;6.35;;;;;;;6.15;63.74;100633.97;6642852;26;34714;-83
2022/01/17 11:00:06;;;;;;;9.35;6.50;;;;;;;6.08;64.09;100597.13;6645718;26;35305;-82
2022/01/17 11:03:11;;;;;;;10.80;6.07;;;;;;;6.07;64.29;100590.06;6639299;26;35347;-82
2022/01/17 11:06:22;;;;;;;10.30;6.15;;;;;;;6.26;63.33;100572.28;6634096;26;34371;-82
2022/01/17 11:09:25;;;;;;;13.82;6.07;;;;;;;6.39;63.08;100561.28;6634405;26;34051;-82
2022/01/17 11:12:29;;;;;;;8.73;5.82;;;;;;;6.74;62.05;100568.59;6635210;26;34348;-82
2022/01/17 11:15:34;;;;;;;9.68;5.87;;;;;;;6.66;61.69;100566.66;6634297;26;33976;-82
2022/01/17 11:18:40;;;;;;;10.00;6.25;;;;;;;6.71;61.58;100571.56;6634250;26;34505;-82
2022/01/17 11:21:44;;;;;;;8.30;5.78;;;;;;;6.52;61.90;100570.69;6634130;26;33667;-82
2022/01/17 11:24:46;;;;;;;14.50;5.28;;;;;;;6.56;62.12;100552.50;6635046;26;34016;-83
2022/01/17 11:27:50;;;;;;;9.90;5.45;;;;;;;6.55;61.84;100554.34;6639246;26;35483;-83
2022/01/17 11:30:55;;;;;;;8.93;5.60;;;;;;;6.51;61.88;100541.38;6636883;26;33934;-83
2022/01/17 11:33:58;;;;;;;8.88;5.20;;;;;;;6.58;61.63;100556.72;6638146;26;34043;-83
2022/01/17 11:37:02;;;;;;;9.50;4.87;;;;;;;6.49;61.84;100565.63;6636739;26;33920;-87
2022/01/17 11:40:09;;;;;;;8.65;5.07;;;;;;;6.43;62.22;100560.00;6635616;26;35176;-87
2022/01/17 11:43:34;;;;;;;7.03;4.07;;;;;;;6.35;61.65;100558.91;6643681;26;34416;-84
2022/01/17 11:46:48;;;;;;;5.20;3.97;;;;;;;6.34;61.75;100543.84;6642269;26;33862;-83
2022/01/17 11:49:56;;;;;;;6.12;4.40;;;;;;;6.37;61.06;100550.72;6643639;26;35054;-83
2022/01/17 11:53:11;;;;;;;6.72;4.47;;;;;;;6.35;61.14;100574.97;6645138;26;34199;-83
2022/01/17 11:56:44;;;;;;;7.10;4.28;;;;;;;6.34;60.84;100567.06;6637171;26;34370;-82
2022/01/17 11:59:54;;;;;;;7.85;4.45;;;;;;;6.39;61.17;100574.66;6605498;26;34435;-82
2022/01/17 12:03:50;;;;;;;4.47;4.03;;;;;;;6.35;61.07;100529.50;6639543;26;34086;-82
2022/01/17 12:06:59;;;;;;;6.80;4.00;;;;;;;6.29;61.48;100537.28;6599552;26;34193;-85
2022/01/17 12:10:14;;;;;;;6.53;4.62;;;;;;;6.30;61.30;100497.00;6634343;26;34756;-86
2022/01/17 12:13:19;;;;;;;7.20;4.20;;;;;;;6.24;61.61;100499.44;6633698;26;34626;-82
2022/01/17 12:16:27;;;;;;;6.20;4.82;;;;;;;6.27;61.82;100512.50;6635343;26;35061;-82
2022/01/17 12:19:34;;;;;;;6.72;4.60;;;;;;;6.17;61.86;100512.53;6634051;26;34204;-82
2022/01/17 12:22:40;;;;;;;7.47;4.50;;;;;;;6.16;62.98;100499.31;6635086;26;34024;-83
2022/01/17 12:25:42;;;;;;;6.50;4.32;;;;;;;6.12;63.07;100486.25;6633677;26;33620;-83
2022/01/17 12:28:54;;;;;;;7.95;4.72;;;;;;;6.08;63.32;100503.56;6633719;26;34101;-83
2022/01/17 12:31:57;;;;;;;6.32;4.55;;;;;;;6.07;63.17;100501.87;6634393;26;33975;-83
2022/01/17 12:35:07;;;;;;;6.37;4.50;;;;;;;6.09;63.08;100462.47;6633905;26;34599;-83
2022/01/17 12:38:15;;;;;;;7.20;4.40;;;;;;;6.08;63.54;100474.16;6634311;26;34279;-83
2022/01/17 12:41:35;;;;;;;6.55;4.60;;;;;;;5.97;63.72;100465.47;6634081;26;34009;-82
2022/01/17 12:44:43;;;;;;;7.55;4.37;;;;;;;5.99;62.93;100472.34;6634640;26;34495;-82
2022/01/17 12:47:47;;;;;;;4.57;3.75;;;;;;;5.98;63.29;100493.88;6634649;26;33889;-83
2022/01/17 12:50:52;;;;;;;7.50;4.53;;;;;;;6.04;63.03;100479.94;6633091;26;35452;-83
2022/01/17 12:53:55;;;;;;;9.35;4.50;;;;;;;6.07;63.24;100498.34;6633640;26;34083;-83
2022/01/17 12:57:00;;;;;;;9.77;4.72;;;;;;;6.02;63.19;100465.88;6635235;26;34069;-84
2022/01/17 13:00:18;;;;;;;9.00;5.03;;;;;;;6.08;63.19;100492.00;6633936;26;34135;-83
2022/01/17 13:03:24;;;;;;;5.30;4.20;;;;;;;6.01;63.58;100481.06;6633163;26;34164;-83
2022/01/17 13:06:26;;;;;;;7.68;5.05;;;;;;;5.99;63.79;100461.66;6633564;26;34122;-83
2022/01/17 13:09:36;;;;;;;7.82;5.05;;;;;;;6.07;63.28;100453.75;6635107;26;33632;-83
2022/01/17 13:12:41;;;;;;;6.65;4.60;;;;;;;6.06;63.31;100456.59;6633655;26;34106;-86
2022/01/17 13:15:57;;;;;;;7.72;4.90;;;;;;;6.15;63.19;100442.34;6632625;26;33568;-87
2022/01/17 13:19:00;;;;;;;8.40;4.60;;;;;;;6.17;62.89;100467.06;6634256;26;34040;-83
2022/01/17 13:22:06;;;;;;;8.20;4.57;;;;;;;6.22;62.25;100450.59;6635493;26;34121;-82
2022/01/17 13:25:09;;;;;;;6.80;4.68;;;;;;;6.26;62.37;100463.53;6635913;26;33917;-83
2022/01/17 13:28:13;;;;;;;6.97;4.85;;;;;;;6.22;62.39;100448.78;6636285;26;33982;-83
2022/01/17 13:31:24;;;;;;;7.47;4.65;;;;;;;6.17;62.88;100450.19;6633640;26;33616;-83
2022/01/17 13:34:28;;;;;;;7.55;4.87;;;;;;;6.19;63.06;100461.59;6640609;26;33792;-83
2022/01/17 13:37:30;;;;;;;7.30;5.30;;;;;;;6.12;63.43;100445.31;6635628;26;33918;-83
2022/01/17 13:40:36;;;;;;;7.65;4.75;;;;;;;6.08;63.85;100427.88;6634416;26;33884;-82
2022/01/17 13:43:50;;;;;;;9.10;4.90;;;;;;;6.03;64.26;100465.75;6634787;26;34617;-83
2022/01/17 13:46:59;;;;;;;9.80;4.60;;;;;;;5.99;64.45;100442.12;6634319;26;34777;-83
2022/01/17 13:50:03;;;;;;;8.20;4.68;;;;;;;5.96;64.77;100467.31;6634234;26;33906;-84
2022/01/17 13:53:06;;;;;;;7.03;5.03;;;;;;;5.97;64.74;100407.53;6638223;26;34293;-83
2022/01/17 13:56:08;;;;;;;6.65;4.57;;;;;;;5.91;64.73;100440.16;6654144;26;34401;-83
2022/01/17 13:59:14;;;;;;;7.55;4.80;;;;;;;5.94;64.87;100425.69;6640924;26;35329;-83
2022/01/17 14:02:17;;;;;;;7.90;4.93;;;;;;;5.94;65.15;100431.03;6637734;26;34299;-83
2022/01/17 14:05:30;;;;;;;6.28;4.82;;;;;;;5.95;65.26;100412.19;6638536;26;33937;-84
2022/01/17 14:08:39;;;;;;;6.00;4.60;;;;;;;5.85;65.76;100388.16;6636736;26;33848;-83
2022/01/17 14:11:45;;;;;;;7.18;4.82;;;;;;;5.83;66.04;100375.94;6638224;26;34384;-84
2022/01/17 14:14:50;;;;;;;5.43;4.10;;;;;;;5.87;65.62;100356.75;6634823;26;34482;-83
2022/01/17 14:18:04;;;;;;;7.90;4.37;;;;;;;5.93;65.58;100370.53;6635360;26;33642;-83
2022/01/17 14:21:07;;;;;;;9.95;5.00;;;;;;;5.97;65.56;100362.13;6634945;26;34052;-82
2022/01/17 14:24:25;;;;;;;5.97;4.50;;;;;;;5.97;66.05;100391.50;6635290;26;34181;-82
2022/01/17 14:27:34;;;;;;;8.32;4.40;;;;;;;5.94;66.40;100380.25;6640363;26;33646;-86
2022/01/17 14:30:38;;;;;;;6.47;4.40;;;;;;;5.91;66.63;100379.53;6642112;26;34312;-84
2022/01/17 14:33:43;;;;;;;10.95;4.57;;;;;;;5.87;66.77;100377.31;6633627;26;35674;-82
2022/01/17 14:37:09;;;;;;;6.25;4.20;;;;;;;5.91;67.76;100389.41;6634352;26;33754;-84
2022/01/17 14:40:20;;;;;;;7.80;4.30;;;;;;;5.77;68.59;100395.22;6636033;26;33916;-84
2022/01/17 14:43:30;;;;;;;8.40;4.93;;;;;;;5.71;68.24;100393.97;6645164;26;34634;-83
2022/01/17 14:46:35;;;;;;;9.68;4.40;;;;;;;5.71;68.42;100393.97;6634801;26;34060;-85
2022/01/17 14:49:42;;;;;;;7.53;4.55;;;;;;;5.81;67.91;100391.25;6638851;26;33609;-85
2022/01/17 14:52:47;;;;;;;5.93;4.30;;;;;;;5.85;67.78;100406.00;6646477;26;34590;-83
2022/01/17 15:02:34;;;;;;;6.50;4.00;;;;;;;5.83;68.05;100411.50;6634263;26;33682;-83
2022/01/17 15:05:38;;;;;;;9.73;4.20;;;;;;;5.89;67.54;100429.59;6639958;26;34494;-83
2022/01/17 15:08:42;;;;;;;6.28;4.03;;;;;;;5.85;67.97;100406.00;6646871;26;34959;-83
2022/01/17 15:11:45;;;;;;;6.65;3.97;;;;;;;5.90;68.03;100419.75;6634531;26;35251;-83
2022/01/17 15:14:49;;;;;;;6.90;4.32;;;;;;;5.90;67.91;100433.94;6634454;26;34776;-83
2022/01/17 15:17:55;;;;;;;5.95;4.12;;;;;;;5.92;67.84;100425.81;6634680;26;35233;-82
2022/01/17 15:21:00;;;;;;;7.43;4.65;;;;;;;5.86;68.21;100421.88;6634422;26;34823;-83
2022/01/17 15:24:02;;;;;;;13.13;4.65;;;;;;;5.84;68.81;100425.69;6638255;26;34188;-82
2022/01/17 15:27:06;;;;;;;8.57;4.45;;;;;;;5.81;68.68;100442.00;6635366;26;34303;-82
2022/01/17 15:30:14;;;;;;;8.00;4.78;;;;;;;5.82;68.65;100454.37;6635025;26;34178;-86
2022/01/17 15:33:17;;;;;;;8.90;4.53;;;;;;;5.79;68.96;100465.34;6635946;26;34909;-82
2022/01/17 15:36:20;;;;;;;7.53;4.65;;;;;;;5.76;69.09;100461.16;6644613;26;33853;-83
2022/01/17 15:39:23;;;;;;;6.80;4.18;;;;;;;5.72;69.08;100458.91;6637703;26;35022;-82
2022/01/17 15:42:26;;;;;;;6.50;3.90;;;;;;;5.72;69.14;100456.25;6635748;26;33624;-81
2022/01/17 15:45:29;;;;;;;7.50;4.35;;;;;;;5.65;69.58;100458.66;6636142;26;33978;-81
2022/01/17 15:48:32;;;;;;;7.35;4.32;;;;;;;5.74;69.42;100460.47;6635635;26;34602;-81
2022/01/17 15:51:35;;;;;;;6.85;4.45;;;;;;;5.65;69.99;100470.19;6635536;26;34891;-81
2022/01/17 15:54:38;;;;;;;7.15;4.40;;;;;;;5.65;69.74;100462.16;6635604;26;34160;-81
2022/01/17 15:57:42;;;;;;;8.30;4.62;;;;;;;5.67;69.42;100465.53;6635428;26;33967;-80
2022/01/17 16:00:46;;;;;;;6.55;4.45;;;;;;;5.64;69.70;100481.00;6636506;26;33744;-80
2022/01/17 16:03:50;;;;;;;9.43;4.35;;;;;;;5.62;69.75;100481.16;6636699;26;34085;-80
2022/01/17 16:06:53;;;;;;;6.57;4.50;;;;;;;5.57;70.31;100499.41;6641328;26;33791;-80
2022/01/17 16:09:55;;;;;;;7.35;4.07;;;;;;;5.59;70.23;100486.78;6641719;26;33678;-80
2022/01/17 16:12:58;;;;;;;6.20;4.30;;;;;;;5.66;71.02;100487.03;6645310;26;34176;-80
2022/01/17 16:16:02;;;;;;;7.95;4.55;;;;;;;5.74;70.35;100503.19;6641225;26;35518;-80
2022/01/17 16:19:11;;;;;;;6.47;4.25;;;;;;;5.72;69.43;100486.47;6640416;26;33746;-81
2022/01/17 16:22:14;;;;;;;6.50;4.57;;;;;;;5.60;70.05;100507.16;6635368;26;33952;-81
2022/01/17 16:25:17;;;;;;;7.68;4.45;;;;;;;5.60;70.90;100504.47;6639932;26;34490;-81
2022/01/17 16:28:21;;;;;;;5.45;3.97;;;;;;;5.47;71.66;100506.62;6637173;26;34519;-81
2022/01/17 16:31:24;;;;;;;7.95;5.50;;;;;;;5.31;73.60;100519.66;6634039;26;34135;-81
2022/01/17 16:34:27;;;;;;;6.18;4.78;;;;;;;5.19;73.71;100527.81;6634400;26;34739;-81
2022/01/17 16:37:31;;;;;;;9.98;5.10;;;;;;;5.04;75.63;100510.53;6636106;26;34048;-81
2022/01/17 16:40:34;;;;;;;6.90;4.82;;;;;;;4.95;75.91;100517.53;6647900;26;33997;-80
2022/01/17 16:43:38;;;;;;;7.75;4.53;;;;;;;4.82;77.58;100494.75;6628187;26;35320;-80
2022/01/17 16:46:41;;;;;;;8.15;5.03;;;;;;;4.57;79.61;100526.28;6635464;26;34273;-80
2022/01/17 16:49:45;;;;;;;5.95;4.43;;;;;;;4.46;81.83;100511.22;6634352;26;34073;-80
2022/01/17 16:52:50;;;;;;;9.07;5.22;;;;;;;4.31;83.53;100533.91;6633973;26;33980;-80
2022/01/17 16:55:52;;;;;;;6.62;4.87;;;;;;;4.27;83.76;100548.47;6634087;26;35024;-80
